sensor_id;sensor_type;location;lat;lon;timestamp;temperature;humidity
41628;DHT22;27321;50.816;6.054;2023-06-22T00:02:09;23.90;60.20
41628;DHT22;27321;50.816;6.054;2023-06-22T00:05:10;23.90;60.30
41628;DHT22;27321;50.816;6.054;2023-06-22T00:08:11;23.90;60.40
41628;DHT22;27321;50.816;6.054;2023-06-22T00:11:12;23.90;60.50
41628;DHT22;27321;50.816;6.054;2023-06-22T00:14:13;23.80;60.40
41628;DHT22;27321;50.816;6.054;2023-06-22T00:17:14;23.80;60.70
41628;DHT22;27321;50.816;6.054;2023-06-22T00:20:15;23.70;60.70
41628;DHT22;27321;50.816;6.054;2023-06-22T00:23:17;23.70;60.70
41628;DHT22;27321;50.816;6.054;2023-06-22T00:26:19;23.70;60.90
41628;DHT22;27321;50.816;6.054;2023-06-22T00:29:21;23.70;60.90
41628;DHT22;27321;50.816;6.054;2023-06-22T00:32:22;23.70;61.00
41628;DHT22;27321;50.816;6.054;2023-06-22T00:35:23;23.70;61.10
41628;DHT22;27321;50.816;6.054;2023-06-22T00:38:29;23.60;61.10
41628;DHT22;27321;50.816;6.054;2023-06-22T00:41:30;23.70;61.30
41628;DHT22;27321;50.816;6.054;2023-06-22T00:44:32;23.60;61.50
41628;DHT22;27321;50.816;6.054;2023-06-22T00:47:34;23.60;61.70
41628;DHT22;27321;50.816;6.054;2023-06-22T00:50:38;23.70;61.60
41628;DHT22;27321;50.816;6.054;2023-06-22T00:53:40;23.70;61.60
41628;DHT22;27321;50.816;6.054;2023-06-22T00:56:42;23.70;61.50
41628;DHT22;27321;50.816;6.054;2023-06-22T00:59:44;23.60;61.60
41628;DHT22;27321;50.816;6.054;2023-06-22T01:02:46;23.60;61.70
41628;DHT22;27321;50.816;6.054;2023-06-22T01:05:55;23.60;61.80
41628;DHT22;27321;50.816;6.054;2023-06-22T01:09:09;23.60;61.80
41628;DHT22;27321;50.816;6.054;2023-06-22T01:12:17;23.60;62.00
41628;DHT22;27321;50.816;6.054;2023-06-22T01:18:48;23.60;62.10
41628;DHT22;27321;50.816;6.054;2023-06-22T01:21:52;23.60;62.10
41628;DHT22;27321;50.816;6.054;2023-06-22T01:25:26;23.60;62.10
41628;DHT22;27321;50.816;6.054;2023-06-22T01:28:46;23.60;62.10
41628;DHT22;27321;50.816;6.054;2023-06-22T01:31:49;23.50;62.10
41628;DHT22;27321;50.816;6.054;2023-06-22T01:34:51;23.50;62.20
41628;DHT22;27321;50.816;6.054;2023-06-22T01:37:52;23.50;62.40
41628;DHT22;27321;50.816;6.054;2023-06-22T01:40:53;23.50;62.60
41628;DHT22;27321;50.816;6.054;2023-06-22T01:43:55;23.50;62.60
41628;DHT22;27321;50.816;6.054;2023-06-22T01:46:57;23.50;62.60
41628;DHT22;27321;50.816;6.054;2023-06-22T01:49:58;23.50;62.60
41628;DHT22;27321;50.816;6.054;2023-06-22T01:52:59;23.40;62.70
41628;DHT22;27321;50.816;6.054;2023-06-22T01:56:00;23.40;62.60
41628;DHT22;27321;50.816;6.054;2023-06-22T02:02:33;23.30;62.70
41628;DHT22;27321;50.816;6.054;2023-06-22T02:05:46;23.30;62.60
41628;DHT22;27321;50.816;6.054;2023-06-22T02:08:55;23.30;62.00
41628;DHT22;27321;50.816;6.054;2023-06-22T02:12:00;23.20;61.30
41628;DHT22;27321;50.816;6.054;2023-06-22T02:15:03;23.10;59.70
41628;DHT22;27321;50.816;6.054;2023-06-22T02:18:05;23.10;59.60
41628;DHT22;27321;50.816;6.054;2023-06-22T02:21:07;23.00;60.20
41628;DHT22;27321;50.816;6.054;2023-06-22T02:24:08;23.00;60.50
41628;DHT22;27321;50.816;6.054;2023-06-22T02:27:09;23.10;60.70
41628;DHT22;27321;50.816;6.054;2023-06-22T02:30:12;23.10;60.80
41628;DHT22;27321;50.816;6.054;2023-06-22T02:33:15;23.10;60.70
41628;DHT22;27321;50.816;6.054;2023-06-22T02:36:16;23.00;59.80
41628;DHT22;27321;50.816;6.054;2023-06-22T02:39:23;23.00;59.90
41628;DHT22;27321;50.816;6.054;2023-06-22T02:42:24;23.00;60.00
41628;DHT22;27321;50.816;6.054;2023-06-22T02:45:25;23.00;60.20
41628;DHT22;27321;50.816;6.054;2023-06-22T02:48:27;22.90;59.60
41628;DHT22;27321;50.816;6.054;2023-06-22T02:51:27;22.90;59.30
41628;DHT22;27321;50.816;6.054;2023-06-22T02:54:32;22.90;59.00
41628;DHT22;27321;50.816;6.054;2023-06-22T02:57:34;22.90;58.80
41628;DHT22;27321;50.816;6.054;2023-06-22T03:00:35;22.80;58.90
41628;DHT22;27321;50.816;6.054;2023-06-22T03:03:36;22.80;59.00
41628;DHT22;27321;50.816;6.054;2023-06-22T03:06:37;22.90;59.00
41628;DHT22;27321;50.816;6.054;2023-06-22T03:09:42;22.80;58.90
41628;DHT22;27321;50.816;6.054;2023-06-22T03:12:44;22.80;59.10
41628;DHT22;27321;50.816;6.054;2023-06-22T03:15:46;22.80;59.20
41628;DHT22;27321;50.816;6.054;2023-06-22T03:18:47;22.80;59.40
41628;DHT22;27321;50.816;6.054;2023-06-22T03:21:48;22.80;59.70
41628;DHT22;27321;50.816;6.054;2023-06-22T03:24:49;22.70;60.30
41628;DHT22;27321;50.816;6.054;2023-06-22T03:27:50;22.70;60.30
41628;DHT22;27321;50.816;6.054;2023-06-22T03:30:51;22.70;60.50
41628;DHT22;27321;50.816;6.054;2023-06-22T03:33:52;22.70;60.60
41628;DHT22;27321;50.816;6.054;2023-06-22T03:36:53;22.70;60.80
41628;DHT22;27321;50.816;6.054;2023-06-22T03:39:54;22.70;60.60
41628;DHT22;27321;50.816;6.054;2023-06-22T03:42:55;22.70;60.60
41628;DHT22;27321;50.816;6.054;2023-06-22T03:45:56;22.70;60.50
41628;DHT22;27321;50.816;6.054;2023-06-22T03:48:57;22.60;60.70
41628;DHT22;27321;50.816;6.054;2023-06-22T03:51:59;22.70;60.90
41628;DHT22;27321;50.816;6.054;2023-06-22T03:55:00;22.80;61.10
41628;DHT22;27321;50.816;6.054;2023-06-22T03:58:01;22.80;61.40
41628;DHT22;27321;50.816;6.054;2023-06-22T04:01:06;22.80;61.80
41628;DHT22;27321;50.816;6.054;2023-06-22T04:04:07;22.80;62.00
41628;DHT22;27321;50.816;6.054;2023-06-22T04:07:08;22.80;62.00
41628;DHT22;27321;50.816;6.054;2023-06-22T04:10:09;22.80;61.60
41628;DHT22;27321;50.816;6.054;2023-06-22T04:13:10;22.70;61.30
41628;DHT22;27321;50.816;6.054;2023-06-22T04:16:12;22.70;61.50
41628;DHT22;27321;50.816;6.054;2023-06-22T04:19:12;22.60;61.40
41628;DHT22;27321;50.816;6.054;2023-06-22T04:22:17;22.60;61.80
41628;DHT22;27321;50.816;6.054;2023-06-22T04:25:18;22.60;62.20
41628;DHT22;27321;50.816;6.054;2023-06-22T04:28:19;22.70;62.40
41628;DHT22;27321;50.816;6.054;2023-06-22T04:31:20;22.80;62.80
41628;DHT22;27321;50.816;6.054;2023-06-22T04:34:21;22.80;63.00
41628;DHT22;27321;50.816;6.054;2023-06-22T04:37:22;22.80;62.60
41628;DHT22;27321;50.816;6.054;2023-06-22T04:40:24;22.80;62.20
41628;DHT22;27321;50.816;6.054;2023-06-22T04:43:25;22.80;63.00
41628;DHT22;27321;50.816;6.054;2023-06-22T04:46:26;22.80;62.40
41628;DHT22;27321;50.816;6.054;2023-06-22T04:49:27;22.80;62.90
41628;DHT22;27321;50.816;6.054;2023-06-22T04:52:33;23.00;63.20
41628;DHT22;27321;50.816;6.054;2023-06-22T04:55:34;23.00;63.60
41628;DHT22;27321;50.816;6.054;2023-06-22T04:58:34;23.10;63.30
41628;DHT22;27321;50.816;6.054;2023-06-22T05:01:35;23.20;62.90
41628;DHT22;27321;50.816;6.054;2023-06-22T05:04:36;23.20;63.10
41628;DHT22;27321;50.816;6.054;2023-06-22T05:07:46;23.30;62.90
41628;DHT22;27321;50.816;6.054;2023-06-22T05:10:48;23.30;62.70
41628;DHT22;27321;50.816;6.054;2023-06-22T05:13:49;23.20;62.20
41628;DHT22;27321;50.816;6.054;2023-06-22T05:16:50;23.20;62.10
41628;DHT22;27321;50.816;6.054;2023-06-22T05:19:53;23.10;62.10
41628;DHT22;27321;50.816;6.054;2023-06-22T05:22:53;23.10;62.40
41628;DHT22;27321;50.816;6.054;2023-06-22T05:25:54;23.10;62.90
41628;DHT22;27321;50.816;6.054;2023-06-22T05:28:59;23.00;63.10
41628;DHT22;27321;50.816;6.054;2023-06-22T05:32:01;23.00;63.40
41628;DHT22;27321;50.816;6.054;2023-06-22T05:35:03;23.10;63.40
41628;DHT22;27321;50.816;6.054;2023-06-22T05:38:04;23.10;63.30
41628;DHT22;27321;50.816;6.054;2023-06-22T05:41:06;23.00;63.40
41628;DHT22;27321;50.816;6.054;2023-06-22T05:44:08;22.90;63.70
41628;DHT22;27321;50.816;6.054;2023-06-22T05:47:08;22.90;64.10
41628;DHT22;27321;50.816;6.054;2023-06-22T05:50:09;22.80;64.50
41628;DHT22;27321;50.816;6.054;2023-06-22T05:53:10;22.80;64.80
41628;DHT22;27321;50.816;6.054;2023-06-22T05:56:11;22.90;64.60
41628;DHT22;27321;50.816;6.054;2023-06-22T05:59:12;22.90;64.40
41628;DHT22;27321;50.816;6.054;2023-06-22T06:02:13;22.90;64.20
41628;DHT22;27321;50.816;6.054;2023-06-22T06:05:14;23.00;63.90
41628;DHT22;27321;50.816;6.054;2023-06-22T06:08:15;22.90;64.00
41628;DHT22;27321;50.816;6.054;2023-06-22T06:11:16;23.00;64.10
41628;DHT22;27321;50.816;6.054;2023-06-22T06:14:17;23.00;64.20
41628;DHT22;27321;50.816;6.054;2023-06-22T06:17:18;23.10;64.00
41628;DHT22;27321;50.816;6.054;2023-06-22T06:20:21;23.10;63.70
41628;DHT22;27321;50.816;6.054;2023-06-22T06:23:23;23.10;64.00
41628;DHT22;27321;50.816;6.054;2023-06-22T06:26:24;23.10;64.00
41628;DHT22;27321;50.816;6.054;2023-06-22T06:29:28;23.20;63.30
41628;DHT22;27321;50.816;6.054;2023-06-22T06:32:29;23.20;63.10
41628;DHT22;27321;50.816;6.054;2023-06-22T06:35:30;23.20;63.10
41628;DHT22;27321;50.816;6.054;2023-06-22T06:38:31;23.30;63.10
41628;DHT22;27321;50.816;6.054;2023-06-22T06:41:32;23.30;62.80
41628;DHT22;27321;50.816;6.054;2023-06-22T06:44:34;23.40;62.80
41628;DHT22;27321;50.816;6.054;2023-06-22T06:47:38;23.40;62.60
41628;DHT22;27321;50.816;6.054;2023-06-22T06:50:40;23.40;62.70
41628;DHT22;27321;50.816;6.054;2023-06-22T06:53:41;23.40;62.80
41628;DHT22;27321;50.816;6.054;2023-06-22T06:56:42;23.50;62.20
41628;DHT22;27321;50.816;6.054;2023-06-22T06:59:49;23.50;62.70
41628;DHT22;27321;50.816;6.054;2023-06-22T07:02:50;23.60;62.90
41628;DHT22;27321;50.816;6.054;2023-06-22T07:05:51;23.60;62.90
41628;DHT22;27321;50.816;6.054;2023-06-22T07:08:52;23.60;62.80
41628;DHT22;27321;50.816;6.054;2023-06-22T07:11:53;23.60;62.80
41628;DHT22;27321;50.816;6.054;2023-06-22T07:15:01;23.60;62.80
41628;DHT22;27321;50.816;6.054;2023-06-22T07:18:05;23.70;62.40
41628;DHT22;27321;50.816;6.054;2023-06-22T07:21:06;23.70;62.60
41628;DHT22;27321;50.816;6.054;2023-06-22T07:24:07;23.80;62.70
41628;DHT22;27321;50.816;6.054;2023-06-22T07:27:08;23.90;62.40
41628;DHT22;27321;50.816;6.054;2023-06-22T07:30:12;24.00;61.90
41628;DHT22;27321;50.816;6.054;2023-06-22T07:33:13;24.00;61.60
41628;DHT22;27321;50.816;6.054;2023-06-22T07:36:14;24.00;61.50
41628;DHT22;27321;50.816;6.054;2023-06-22T07:39:17;24.00;61.40
41628;DHT22;27321;50.816;6.054;2023-06-22T07:42:18;24.00;61.20
41628;DHT22;27321;50.816;6.054;2023-06-22T07:45:22;24.10;61.20
41628;DHT22;27321;50.816;6.054;2023-06-22T07:48:23;24.10;61.40
41628;DHT22;27321;50.816;6.054;2023-06-22T07:51:24;24.10;60.90
41628;DHT22;27321;50.816;6.054;2023-06-22T07:54:25;24.10;60.40
41628;DHT22;27321;50.816;6.054;2023-06-22T07:57:26;24.10;60.50
41628;DHT22;27321;50.816;6.054;2023-06-22T08:00:33;24.10;60.40
41628;DHT22;27321;50.816;6.054;2023-06-22T08:03:34;24.20;60.20
41628;DHT22;27321;50.816;6.054;2023-06-22T08:06:35;24.10;60.20
41628;DHT22;27321;50.816;6.054;2023-06-22T08:09:36;24.10;60.90
41628;DHT22;27321;50.816;6.054;2023-06-22T08:12:37;24.20;61.20
41628;DHT22;27321;50.816;6.054;2023-06-22T08:15:39;24.40;61.00
41628;DHT22;27321;50.816;6.054;2023-06-22T08:18:40;24.50;60.70
41628;DHT22;27321;50.816;6.054;2023-06-22T08:21:41;24.60;60.30
41628;DHT22;27321;50.816;6.054;2023-06-22T08:24:43;24.80;60.60
41628;DHT22;27321;50.816;6.054;2023-06-22T08:27:47;25.00;60.10
41628;DHT22;27321;50.816;6.054;2023-06-22T08:30:49;25.10;60.30
41628;DHT22;27321;50.816;6.054;2023-06-22T08:33:49;25.10;59.40
41628;DHT22;27321;50.816;6.054;2023-06-22T08:36:50;25.10;59.90
41628;DHT22;27321;50.816;6.054;2023-06-22T08:39:53;25.30;60.10
41628;DHT22;27321;50.816;6.054;2023-06-22T08:42:54;25.50;60.00
41628;DHT22;27321;50.816;6.054;2023-06-22T08:45:55;25.50;59.60
41628;DHT22;27321;50.816;6.054;2023-06-22T08:48:59;25.50;59.40
41628;DHT22;27321;50.816;6.054;2023-06-22T08:52:00;25.40;60.60
41628;DHT22;27321;50.816;6.054;2023-06-22T08:55:01;25.40;60.40
41628;DHT22;27321;50.816;6.054;2023-06-22T08:58:02;25.40;60.70
41628;DHT22;27321;50.816;6.054;2023-06-22T09:01:04;25.50;61.30
41628;DHT22;27321;50.816;6.054;2023-06-22T09:04:08;25.60;60.80
41628;DHT22;27321;50.816;6.054;2023-06-22T09:07:10;25.60;60.70
41628;DHT22;27321;50.816;6.054;2023-06-22T09:10:11;25.70;60.30
41628;DHT22;27321;50.816;6.054;2023-06-22T09:13:12;25.70;59.90
41628;DHT22;27321;50.816;6.054;2023-06-22T09:16:13;25.60;59.60
41628;DHT22;27321;50.816;6.054;2023-06-22T09:19:14;25.60;60.00
41628;DHT22;27321;50.816;6.054;2023-06-22T09:22:15;25.60;60.00
41628;DHT22;27321;50.816;6.054;2023-06-22T09:25:17;25.70;59.60
41628;DHT22;27321;50.816;6.054;2023-06-22T09:28:19;25.60;59.70
41628;DHT22;27321;50.816;6.054;2023-06-22T09:31:20;25.60;60.30
41628;DHT22;27321;50.816;6.054;2023-06-22T09:34:26;25.50;60.40
41628;DHT22;27321;50.816;6.054;2023-06-22T09:37:26;25.40;60.90
41628;DHT22;27321;50.816;6.054;2023-06-22T09:40:27;25.30;61.40
41628;DHT22;27321;50.816;6.054;2023-06-22T09:43:31;25.30;61.60
41628;DHT22;27321;50.816;6.054;2023-06-22T09:46:32;25.30;61.80
41628;DHT22;27321;50.816;6.054;2023-06-22T09:49:33;25.30;62.30
41628;DHT22;27321;50.816;6.054;2023-06-22T09:52:34;25.40;62.60
41628;DHT22;27321;50.816;6.054;2023-06-22T09:55:35;25.40;63.00
41628;DHT22;27321;50.816;6.054;2023-06-22T09:58:36;25.40;63.00
41628;DHT22;27321;50.816;6.054;2023-06-22T10:01:38;25.40;63.20
41628;DHT22;27321;50.816;6.054;2023-06-22T10:04:39;25.40;64.10
41628;DHT22;27321;50.816;6.054;2023-06-22T10:07:40;25.30;65.80
41628;DHT22;27321;50.816;6.054;2023-06-22T10:10:43;25.30;67.20
41628;DHT22;27321;50.816;6.054;2023-06-22T10:13:44;25.20;68.50
41628;DHT22;27321;50.816;6.054;2023-06-22T10:16:45;25.10;68.70
41628;DHT22;27321;50.816;6.054;2023-06-22T10:19:46;25.10;69.10
41628;DHT22;27321;50.816;6.054;2023-06-22T10:22:47;25.10;70.10
41628;DHT22;27321;50.816;6.054;2023-06-22T10:25:48;25.00;70.60
41628;DHT22;27321;50.816;6.054;2023-06-22T10:28:50;25.00;70.50
41628;DHT22;27321;50.816;6.054;2023-06-22T10:31:51;24.80;70.90
41628;DHT22;27321;50.816;6.054;2023-06-22T10:34:52;24.70;71.50
41628;DHT22;27321;50.816;6.054;2023-06-22T10:37:53;24.60;71.90
41628;DHT22;27321;50.816;6.054;2023-06-22T10:40:55;24.60;72.90
41628;DHT22;27321;50.816;6.054;2023-06-22T10:43:56;24.50;73.20
41628;DHT22;27321;50.816;6.054;2023-06-22T10:46:57;24.50;74.00
41628;DHT22;27321;50.816;6.054;2023-06-22T10:49:58;24.50;74.40
41628;DHT22;27321;50.816;6.054;2023-06-22T10:52:59;24.50;74.70
41628;DHT22;27321;50.816;6.054;2023-06-22T10:56:00;24.50;74.30
41628;DHT22;27321;50.816;6.054;2023-06-22T10:59:01;24.50;74.60
41628;DHT22;27321;50.816;6.054;2023-06-22T11:02:02;24.60;73.40
41628;DHT22;27321;50.816;6.054;2023-06-22T11:05:03;24.70;73.00
41628;DHT22;27321;50.816;6.054;2023-06-22T11:08:04;24.70;72.80
41628;DHT22;27321;50.816;6.054;2023-06-22T11:11:05;24.90;73.20
41628;DHT22;27321;50.816;6.054;2023-06-22T11:14:06;25.00;73.40
41628;DHT22;27321;50.816;6.054;2023-06-22T11:17:07;25.10;73.00
41628;DHT22;27321;50.816;6.054;2023-06-22T11:20:08;25.10;73.30
41628;DHT22;27321;50.816;6.054;2023-06-22T11:23:15;25.10;72.80
41628;DHT22;27321;50.816;6.054;2023-06-22T11:26:19;25.20;72.20
41628;DHT22;27321;50.816;6.054;2023-06-22T11:29:21;25.20;71.70
41628;DHT22;27321;50.816;6.054;2023-06-22T11:32:22;25.30;72.00
41628;DHT22;27321;50.816;6.054;2023-06-22T11:35:24;25.40;71.50
41628;DHT22;27321;50.816;6.054;2023-06-22T11:38:25;25.50;71.70
41628;DHT22;27321;50.816;6.054;2023-06-22T11:41:26;25.60;71.50
41628;DHT22;27321;50.816;6.054;2023-06-22T11:44:27;25.90;71.00
41628;DHT22;27321;50.816;6.054;2023-06-22T11:47:29;26.00;70.60
41628;DHT22;27321;50.816;6.054;2023-06-22T11:50:30;25.90;69.60
41628;DHT22;27321;50.816;6.054;2023-06-22T11:53:35;25.80;69.10
41628;DHT22;27321;50.816;6.054;2023-06-22T11:56:36;25.70;69.70
41628;DHT22;27321;50.816;6.054;2023-06-22T12:00:02;25.70;69.50
41628;DHT22;27321;50.816;6.054;2023-06-22T12:04:11;25.70;68.00
41628;DHT22;27321;50.816;6.054;2023-06-22T12:07:24;25.80;67.90
41628;DHT22;27321;50.816;6.054;2023-06-22T12:10:29;25.90;67.70
41628;DHT22;27321;50.816;6.054;2023-06-22T12:14:05;25.90;67.70
41628;DHT22;27321;50.816;6.054;2023-06-22T12:17:18;25.90;68.40
41628;DHT22;27321;50.816;6.054;2023-06-22T12:20:29;25.80;67.90
41628;DHT22;27321;50.816;6.054;2023-06-22T12:23:38;25.80;68.40
41628;DHT22;27321;50.816;6.054;2023-06-22T12:30:22;25.70;68.30
41628;DHT22;27321;50.816;6.054;2023-06-22T12:33:30;25.60;68.00
41628;DHT22;27321;50.816;6.054;2023-06-22T12:36:31;25.60;68.50
41628;DHT22;27321;50.816;6.054;2023-06-22T12:39:32;25.80;69.40
41628;DHT22;27321;50.816;6.054;2023-06-22T12:42:39;25.90;68.60
41628;DHT22;27321;50.816;6.054;2023-06-22T12:45:41;26.00;68.70
41628;DHT22;27321;50.816;6.054;2023-06-22T12:48:44;26.00;68.40
41628;DHT22;27321;50.816;6.054;2023-06-22T12:51:45;26.00;67.60
41628;DHT22;27321;50.816;6.054;2023-06-22T12:54:54;25.80;68.90
41628;DHT22;27321;50.816;6.054;2023-06-22T12:57:55;25.70;68.60
41628;DHT22;27321;50.816;6.054;2023-06-22T13:00:57;25.50;68.10
41628;DHT22;27321;50.816;6.054;2023-06-22T13:03:58;25.50;68.50
41628;DHT22;27321;50.816;6.054;2023-06-22T13:06:59;25.50;69.80
41628;DHT22;27321;50.816;6.054;2023-06-22T13:10:00;25.40;70.30
41628;DHT22;27321;50.816;6.054;2023-06-22T13:13:01;25.30;70.40
41628;DHT22;27321;50.816;6.054;2023-06-22T13:16:02;25.10;70.90
41628;DHT22;27321;50.816;6.054;2023-06-22T13:19:03;25.00;71.30
41628;DHT22;27321;50.816;6.054;2023-06-22T13:22:04;24.90;72.30
41628;DHT22;27321;50.816;6.054;2023-06-22T13:25:06;24.70;72.60
41628;DHT22;27321;50.816;6.054;2023-06-22T13:28:08;24.60;73.30
41628;DHT22;27321;50.816;6.054;2023-06-22T13:31:09;24.50;73.40
41628;DHT22;27321;50.816;6.054;2023-06-22T13:34:10;24.50;73.90
41628;DHT22;27321;50.816;6.054;2023-06-22T13:37:11;24.50;73.90
41628;DHT22;27321;50.816;6.054;2023-06-22T13:40:12;24.40;73.80
41628;DHT22;27321;50.816;6.054;2023-06-22T13:43:13;24.20;73.90
41628;DHT22;27321;50.816;6.054;2023-06-22T13:46:14;24.10;74.40
41628;DHT22;27321;50.816;6.054;2023-06-22T13:49:15;24.10;74.60
41628;DHT22;27321;50.816;6.054;2023-06-22T13:52:17;24.10;74.50
41628;DHT22;27321;50.816;6.054;2023-06-22T13:55:18;24.10;74.30
41628;DHT22;27321;50.816;6.054;2023-06-22T13:58:21;24.00;73.70
41628;DHT22;27321;50.816;6.054;2023-06-22T14:01:22;24.00;73.80
41628;DHT22;27321;50.816;6.054;2023-06-22T14:04:23;24.00;74.00
41628;DHT22;27321;50.816;6.054;2023-06-22T14:07:24;23.90;74.50
41628;DHT22;27321;50.816;6.054;2023-06-22T14:10:25;23.80;75.00
41628;DHT22;27321;50.816;6.054;2023-06-22T14:13:26;23.80;75.20
41628;DHT22;27321;50.816;6.054;2023-06-22T14:16:27;23.80;75.90
41628;DHT22;27321;50.816;6.054;2023-06-22T14:19:28;23.80;76.50
41628;DHT22;27321;50.816;6.054;2023-06-22T14:22:29;23.70;76.80
41628;DHT22;27321;50.816;6.054;2023-06-22T14:25:30;23.60;78.50
41628;DHT22;27321;50.816;6.054;2023-06-22T14:28:31;23.50;79.50
41628;DHT22;27321;50.816;6.054;2023-06-22T14:31:32;23.40;80.90
41628;DHT22;27321;50.816;6.054;2023-06-22T14:34:34;23.30;80.60
41628;DHT22;27321;50.816;6.054;2023-06-22T14:37:36;23.10;80.60
41628;DHT22;27321;50.816;6.054;2023-06-22T14:40:37;23.00;80.90
41628;DHT22;27321;50.816;6.054;2023-06-22T14:43:38;23.00;80.80
41628;DHT22;27321;50.816;6.054;2023-06-22T14:46:39;23.00;80.90
41628;DHT22;27321;50.816;6.054;2023-06-22T14:49:40;22.90;81.10
41628;DHT22;27321;50.816;6.054;2023-06-22T14:52:41;22.80;81.40
41628;DHT22;27321;50.816;6.054;2023-06-22T14:55:42;22.70;81.40
41628;DHT22;27321;50.816;6.054;2023-06-22T14:58:43;22.70;81.70
41628;DHT22;27321;50.816;6.054;2023-06-22T15:01:47;22.60;81.40
41628;DHT22;27321;50.816;6.054;2023-06-22T15:04:48;22.50;85.80
41628;DHT22;27321;50.816;6.054;2023-06-22T15:07:49;22.40;88.70
41628;DHT22;27321;50.816;6.054;2023-06-22T15:10:51;22.40;87.70
41628;DHT22;27321;50.816;6.054;2023-06-22T15:13:52;22.40;87.60
41628;DHT22;27321;50.816;6.054;2023-06-22T15:16:53;22.30;88.10
41628;DHT22;27321;50.816;6.054;2023-06-22T15:19:55;22.00;87.80
41628;DHT22;27321;50.816;6.054;2023-06-22T15:22:57;21.60;89.20
41628;DHT22;27321;50.816;6.054;2023-06-22T15:26:02;21.50;89.00
41628;DHT22;27321;50.816;6.054;2023-06-22T15:29:05;21.50;89.70
41628;DHT22;27321;50.816;6.054;2023-06-22T15:32:07;21.50;90.50
41628;DHT22;27321;50.816;6.054;2023-06-22T15:35:08;21.60;90.80
41628;DHT22;27321;50.816;6.054;2023-06-22T15:38:09;21.80;90.60
41628;DHT22;27321;50.816;6.054;2023-06-22T15:41:10;21.70;89.60
41628;DHT22;27321;50.816;6.054;2023-06-22T15:44:11;21.60;89.70
41628;DHT22;27321;50.816;6.054;2023-06-22T15:47:12;21.30;88.70
41628;DHT22;27321;50.816;6.054;2023-06-22T15:50:13;21.20;89.60
41628;DHT22;27321;50.816;6.054;2023-06-22T15:53:14;21.10;89.10
41628;DHT22;27321;50.816;6.054;2023-06-22T15:56:15;21.00;89.10
41628;DHT22;27321;50.816;6.054;2023-06-22T15:59:16;20.90;88.80
41628;DHT22;27321;50.816;6.054;2023-06-22T16:02:17;20.80;89.70
41628;DHT22;27321;50.816;6.054;2023-06-22T16:05:18;21.00;89.50
41628;DHT22;27321;50.816;6.054;2023-06-22T16:08:19;21.00;89.20
41628;DHT22;27321;50.816;6.054;2023-06-22T16:11:20;20.90;89.20
41628;DHT22;27321;50.816;6.054;2023-06-22T16:14:22;20.90;88.50
41628;DHT22;27321;50.816;6.054;2023-06-22T16:17:23;20.90;89.10
41628;DHT22;27321;50.816;6.054;2023-06-22T16:20:26;20.90;88.20
41628;DHT22;27321;50.816;6.054;2023-06-22T16:23:30;20.90;88.20
41628;DHT22;27321;50.816;6.054;2023-06-22T16:26:38;20.90;87.50
41628;DHT22;27321;50.816;6.054;2023-06-22T16:29:40;20.90;87.80
41628;DHT22;27321;50.816;6.054;2023-06-22T16:32:52;20.80;87.00
41628;DHT22;27321;50.816;6.054;2023-06-22T16:35:59;20.80;87.20
41628;DHT22;27321;50.816;6.054;2023-06-22T16:39:01;20.80;87.50
41628;DHT22;27321;50.816;6.054;2023-06-22T16:42:04;20.80;86.80
41628;DHT22;27321;50.816;6.054;2023-06-22T16:45:05;20.80;86.40
41628;DHT22;27321;50.816;6.054;2023-06-22T16:48:06;20.70;85.90
41628;DHT22;27321;50.816;6.054;2023-06-22T16:51:08;20.60;86.10
41628;DHT22;27321;50.816;6.054;2023-06-22T16:54:15;20.50;86.60
41628;DHT22;27321;50.816;6.054;2023-06-22T16:57:36;20.40;86.80
41628;DHT22;27321;50.816;6.054;2023-06-22T17:00:37;20.40;87.00
41628;DHT22;27321;50.816;6.054;2023-06-22T17:04:07;20.30;87.20
41628;DHT22;27321;50.816;6.054;2023-06-22T17:07:37;20.30;86.70
41628;DHT22;27321;50.816;6.054;2023-06-22T17:11:24;20.20;87.20
41628;DHT22;27321;50.816;6.054;2023-06-22T17:14:33;20.10;86.00
41628;DHT22;27321;50.816;6.054;2023-06-22T17:18:30;20.00;86.30
41628;DHT22;27321;50.816;6.054;2023-06-22T17:22:21;19.90;87.40
41628;DHT22;27321;50.816;6.054;2023-06-22T17:25:23;19.80;86.90
41628;DHT22;27321;50.816;6.054;2023-06-22T17:28:24;19.60;86.90
41628;DHT22;27321;50.816;6.054;2023-06-22T17:31:36;19.60;87.60
41628;DHT22;27321;50.816;6.054;2023-06-22T17:34:38;19.50;88.00
41628;DHT22;27321;50.816;6.054;2023-06-22T17:37:51;19.40;88.20
41628;DHT22;27321;50.816;6.054;2023-06-22T17:41:00;19.30;88.30
41628;DHT22;27321;50.816;6.054;2023-06-22T17:44:10;19.10;90.00
41628;DHT22;27321;50.816;6.054;2023-06-22T17:47:13;18.90;90.60
41628;DHT22;27321;50.816;6.054;2023-06-22T17:50:26;18.60;91.50
41628;DHT22;27321;50.816;6.054;2023-06-22T17:53:29;18.50;92.00
41628;DHT22;27321;50.816;6.054;2023-06-22T17:56:36;18.50;92.20
41628;DHT22;27321;50.816;6.054;2023-06-22T17:59:38;18.30;92.10
41628;DHT22;27321;50.816;6.054;2023-06-22T18:02:40;18.30;92.40
41628;DHT22;27321;50.816;6.054;2023-06-22T18:05:46;18.20;92.30
41628;DHT22;27321;50.816;6.054;2023-06-22T18:08:50;18.30;92.40
41628;DHT22;27321;50.816;6.054;2023-06-22T18:11:53;18.20;92.50
41628;DHT22;27321;50.816;6.054;2023-06-22T18:14:56;18.30;92.40
41628;DHT22;27321;50.816;6.054;2023-06-22T18:17:58;18.30;92.30
41628;DHT22;27321;50.816;6.054;2023-06-22T18:21:01;18.30;92.40
41628;DHT22;27321;50.816;6.054;2023-06-22T18:24:07;18.40;92.50
41628;DHT22;27321;50.816;6.054;2023-06-22T18:27:10;18.30;92.30
41628;DHT22;27321;50.816;6.054;2023-06-22T18:30:13;18.30;92.20
41628;DHT22;27321;50.816;6.054;2023-06-22T18:33:14;18.20;92.20
41628;DHT22;27321;50.816;6.054;2023-06-22T18:36:19;18.20;92.30
41628;DHT22;27321;50.816;6.054;2023-06-22T18:39:22;18.20;92.40
41628;DHT22;27321;50.816;6.054;2023-06-22T18:42:24;18.20;92.40
41628;DHT22;27321;50.816;6.054;2023-06-22T18:45:27;18.20;92.10
41628;DHT22;27321;50.816;6.054;2023-06-22T18:48:36;18.10;92.10
41628;DHT22;27321;50.816;6.054;2023-06-22T18:51:55;18.10;92.20
41628;DHT22;27321;50.816;6.054;2023-06-22T18:55:04;18.10;91.90
41628;DHT22;27321;50.816;6.054;2023-06-22T19:01:17;18.10;92.20
41628;DHT22;27321;50.816;6.054;2023-06-22T19:04:19;18.10;92.00
41628;DHT22;27321;50.816;6.054;2023-06-22T19:10:52;18.20;92.10
41628;DHT22;27321;50.816;6.054;2023-06-22T19:13:53;18.10;91.70
41628;DHT22;27321;50.816;6.054;2023-06-22T19:16:59;18.20;92.20
41628;DHT22;27321;50.816;6.054;2023-06-22T19:20:04;18.20;92.30
41628;DHT22;27321;50.816;6.054;2023-06-22T19:23:23;18.30;92.10
41628;DHT22;27321;50.816;6.054;2023-06-22T19:26:27;18.20;91.90
41628;DHT22;27321;50.816;6.054;2023-06-22T19:29:28;18.30;92.30
41628;DHT22;27321;50.816;6.054;2023-06-22T19:32:30;18.30;92.30
41628;DHT22;27321;50.816;6.054;2023-06-22T19:35:32;18.40;92.20